Time;durP1;ratioP1;P1;durP2;ratioP2;P2;SDS_P1;SDS_P2;PMS_P1;PMS_P2;Temp;Humidity;BMP_temperature;BMP_pressure;BME280_temperature;BME280_humidity;BME280_pressure;Samples;Min_cycle;Max_cycle;Signal;HPM_P1;HPM_P2
2023/05/21 00:02:58;;;;;;;7.30;6.50;;;;;;;13.09;68.03;101345.60;215625;1256;61231;-76
2023/05/21 00:07:52;;;;;;;6.70;5.90;;;;;;;13.01;68.16;101345.83;215641;1256;61387;-78
2023/05/21 00:12:45;;;;;;;9.90;6.00;;;;;;;12.95;68.32;101345.39;215670;1256;67412;-79
2023/05/21 00:17:42;;;;;;;7.10;6.20;;;;;;;12.88;68.33;101349.80;215663;1256;61373;-79
2023/05/21 00:22:36;;;;;;;12.00;6.80;;;;;;;12.82;68.40;101344.45;215549;1254;73568;-81
2023/05/21 00:27:29;;;;;;;6.50;5.70;;;;;;;12.79;68.51;101344.58;215649;1255;71136;-78
2023/05/21 00:32:22;;;;;;;11.70;5.50;;;;;;;12.73;68.62;101341.34;215575;1256;61286;-78
2023/05/21 00:37:15;;;;;;;10.50;6.10;;;;;;;12.69;68.63;101340.75;216244;1258;67116;-78
2023/05/21 00:42:08;;;;;;;6.50;5.60;;;;;;;12.65;68.85;101345.02;215737;1254;61320;-79
2023/05/21 00:47:02;;;;;;;9.30;5.30;;;;;;;12.58;68.87;101343.16;215603;1258;74925;-77
2023/05/21 00:51:56;;;;;;;5.70;5.00;;;;;;;12.53;68.96;101345.66;215308;1254;71547;-79
2023/05/21 00:56:51;;;;;;;11.20;5.90;;;;;;;12.47;68.98;101343.80;215238;1257;61361;-79
2023/05/21 01:01:45;;;;;;;6.30;5.00;;;;;;;12.43;69.01;101345.64;215347;1258;65840;-77
2023/05/21 01:06:38;;;;;;;7.00;5.60;;;;;;;12.38;69.01;101351.98;215056;1257;61339;-78
2023/05/21 01:11:41;;;;;;;7.30;5.20;;;;;;;12.32;69.05;101354.99;215557;1258;74593;-78
2023/05/21 01:16:40;;;;;;;7.70;5.70;;;;;;;12.24;69.06;101350.15;216974;1254;72921;-78
2023/05/21 01:21:41;;;;;;;10.00;5.10;;;;;;;12.19;69.40;101350.93;217280;1254;61321;-78
2023/05/21 01:26:38;;;;;;;5.50;4.70;;;;;;;12.14;69.31;101348.40;216425;1258;65340;-78
2023/05/21 01:31:48;;;;;;;6.10;5.10;;;;;;;12.06;69.37;101346.30;215616;1258;61353;-79
2023/05/21 01:36:49;;;;;;;5.80;5.30;;;;;;;12.00;69.50;101343.76;215604;1254;75397;-78
2023/05/21 01:41:45;;;;;;;7.90;5.30;;;;;;;11.92;69.63;101339.75;215732;1254;72661;-78
2023/05/21 01:46:39;;;;;;;6.40;4.70;;;;;;;11.83;69.59;101339.69;215697;1258;61378;-78
2023/05/21 01:51:33;;;;;;;5.90;4.60;;;;;;;11.75;69.62;101338.66;215666;1254;66047;-79
2023/05/21 01:56:27;;;;;;;8.60;5.00;;;;;;;11.69;69.85;101338.35;215634;1254;61270;-78
2023/05/21 02:01:20;;;;;;;5.70;5.10;;;;;;;11.62;69.86;101338.70;215773;1258;74526;-78
2023/05/21 02:06:13;;;;;;;6.00;4.70;;;;;;;11.51;69.97;101343.14;215663;1256;61234;-78
2023/05/21 02:11:06;;;;;;;5.80;4.80;;;;;;;11.44;70.06;101339.89;215830;1257;61249;-79
2023/05/21 02:16:00;;;;;;;6.10;5.30;;;;;;;11.40;70.11;101338.39;215542;1254;66382;-78
2023/05/21 02:20:53;;;;;;;5.70;4.80;;;;;;;11.36;70.15;101339.00;215915;1258;61274;-78
2023/05/21 02:25:46;;;;;;;4.20;3.80;;;;;;;11.28;69.99;101337.05;215764;1258;61288;-78
2023/05/21 02:30:39;;;;;;;5.30;4.60;;;;;;;11.19;70.10;101334.42;215713;1254;72580;-79
2023/05/21 02:35:33;;;;;;;6.80;4.70;;;;;;;11.15;70.11;101327.19;215820;1254;61413;-78
2023/05/21 02:40:27;;;;;;;12.30;4.80;;;;;;;11.10;70.14;101330.03;215972;1255;65751;-77
2023/05/21 02:45:20;;;;;;;5.60;4.10;;;;;;;11.09;70.27;101329.13;215886;1253;61271;-78
2023/05/21 02:50:14;;;;;;;6.30;4.80;;;;;;;11.07;70.27;101326.84;215873;1257;131681;-79
2023/05/21 02:55:11;;;;;;;5.00;4.30;;;;;;;11.01;70.39;101329.64;215840;1254;71189;-78
2023/05/21 03:00:08;;;;;;;5.40;4.20;;;;;;;11.00;70.30;101327.52;215887;1254;61369;-77
2023/05/21 03:05:01;;;;;;;6.00;4.20;;;;;;;10.99;70.35;101331.48;215846;1254;67142;-78
2023/05/21 03:09:55;;;;;;;4.90;4.30;;;;;;;11.00;70.44;101329.95;215620;1254;61445;-78
2023/05/21 03:14:50;;;;;;;5.60;4.60;;;;;;;11.02;70.47;101330.02;215624;1254;73388;-77
2023/05/21 03:19:47;;;;;;;5.20;4.00;;;;;;;11.06;70.39;101328.21;218508;1254;71414;-78
2023/05/21 03:24:41;;;;;;;5.80;3.40;;;;;;;11.12;70.49;101322.95;217752;1255;59958;-77
2023/05/21 03:29:34;;;;;;;5.40;4.10;;;;;;;11.18;70.49;101323.80;215873;1254;67663;-78
2023/05/21 03:34:28;;;;;;;5.10;3.70;;;;;;;11.23;70.43;101322.02;215658;1257;61223;-77
2023/05/21 03:39:21;;;;;;;7.30;3.60;;;;;;;11.36;70.57;101321.10;215826;1257;73797;-78
2023/05/21 03:44:14;;;;;;;4.90;3.50;;;;;;;11.54;70.42;101316.30;215875;1254;61445;-77
2023/05/21 03:49:17;;;;;;;4.90;3.70;;;;;;;11.61;70.49;101311.43;215979;1253;61292;-77
2023/05/21 03:54:11;;;;;;;4.50;3.90;;;;;;;11.70;70.46;101316.32;216060;1254;66301;-77
2023/05/21 03:59:05;;;;;;;4.20;3.80;;;;;;;11.76;70.50;101314.20;215917;1254;61305;-77
2023/05/21 04:03:58;;;;;;;6.90;3.80;;;;;;;11.83;70.42;101313.13;215805;1254;75994;-77
2023/05/21 04:08:52;;;;;;;4.70;3.80;;;;;;;11.88;70.44;101311.50;215734;1254;73581;-77
2023/05/21 04:13:46;;;;;;;6.30;4.30;;;;;;;11.99;70.47;101312.61;215799;1254;61212;-76
2023/05/21 04:18:41;;;;;;;4.30;3.80;;;;;;;12.08;70.29;101311.76;215754;1255;66787;-77
2023/05/21 04:23:37;;;;;;;5.20;3.80;;;;;;;12.16;70.12;101303.58;215772;1254;61381;-77
2023/05/21 04:28:35;;;;;;;;;;;;;;;12.28;70.09;101299.65;215759;1254;74739;-77
2023/05/21 04:33:29;;;;;;;6.10;3.40;;;;;;;12.39;70.03;101301.76;215632;1254;61251;-77
2023/05/21 04:38:22;;;;;;;4.10;3.40;;;;;;;12.48;69.97;101296.89;215765;1254;61270;-77
2023/05/21 04:43:15;;;;;;;5.80;3.50;;;;;;;12.61;69.81;101293.46;215741;1257;61307;-77
2023/05/21 04:48:09;;;;;;;5.30;3.40;;;;;;;12.74;69.47;101289.36;215781;1254;61718;-77
2023/05/21 04:53:03;;;;;;;3.70;3.10;;;;;;;12.86;69.19;101291.64;215822;1257;75613;-77
2023/05/21 04:57:56;;;;;;;5.30;3.30;;;;;;;13.05;68.68;101288.30;215675;1254;72326;-77
2023/05/21 05:02:49;;;;;;;4.10;3.30;;;;;;;13.27;67.97;101287.78;215767;1254;61188;-77
2023/05/21 05:07:42;;;;;;;3.70;2.80;;;;;;;13.47;68.02;101292.09;215837;1254;68524;-77
2023/05/21 05:12:35;;;;;;;3.90;2.90;;;;;;;13.59;67.56;101292.25;215752;1254;61354;-77
2023/05/21 05:17:29;;;;;;;3.10;2.80;;;;;;;13.79;66.97;101287.45;215898;1254;73250;-77
2023/05/21 05:22:24;;;;;;;3.80;2.20;;;;;;;14.00;66.74;101284.77;215733;1254;72872;-78
2023/05/21 05:27:17;;;;;;;2.90;2.60;;;;;;;14.17;66.40;101278.17;215756;1254;61277;-77
2023/05/21 05:32:11;;;;;;;3.10;2.50;;;;;;;14.37;65.47;101274.89;215786;1254;67517;-77
2023/05/21 05:37:04;;;;;;;3.30;2.40;;;;;;;14.56;65.35;101274.73;215767;1254;61325;-77
2023/05/21 05:41:58;;;;;;;5.10;2.40;;;;;;;14.74;64.75;101271.62;215773;1254;74088;-77
2023/05/21 05:46:51;;;;;;;6.80;2.60;;;;;;;14.95;64.64;101273.18;215931;1254;74275;-77
2023/05/21 05:51:44;;;;;;;2.90;2.50;;;;;;;15.11;64.22;101266.32;215772;1254;61321;-77
2023/05/21 05:56:37;;;;;;;6.00;2.70;;;;;;;15.35;63.38;101268.91;215885;1257;61366;-77
2023/05/21 06:01:30;;;;;;;3.20;2.40;;;;;;;15.62;62.73;101271.69;215732;1254;61282;-77
2023/05/21 06:06:23;;;;;;;3.60;2.30;;;;;;;15.96;62.01;101263.12;215739;1254;73599;-77
2023/05/21 06:11:17;;;;;;;2.60;2.40;;;;;;;16.42;61.17;101263.05;215581;1254;61275;-77
2023/05/21 06:16:11;;;;;;;3.40;2.20;;;;;;;17.60;59.24;101262.46;215791;1254;61304;-77
2023/05/21 06:21:04;;;;;;;3.40;2.70;;;;;;;18.20;58.09;101264.67;215707;1254;67000;-77
2023/05/21 06:25:57;;;;;;;3.50;2.60;;;;;;;18.93;56.79;101264.70;215806;1257;61272;-77
2023/05/21 06:30:51;;;;;;;2.90;2.70;;;;;;;19.74;55.14;101258.73;215740;1254;73970;-77
2023/05/21 06:35:44;;;;;;;3.20;2.50;;;;;;;20.86;52.59;101255.04;215852;1254;71482;-78
2023/05/21 06:40:37;;;;;;;3.90;2.50;;;;;;;20.93;52.24;101253.52;215757;1253;61261;-77
2023/05/21 06:45:31;;;;;;;3.90;2.90;;;;;;;22.22;49.97;101251.34;215754;1254;65770;-78
2023/05/21 06:50:28;;;;;;;3.90;2.20;;;;;;;22.48;49.39;101245.61;215732;1254;61420;-77
2023/05/21 06:55:21;;;;;;;2.60;2.00;;;;;;;22.22;49.74;101244.63;215784;1254;61293;-77
2023/05/21 07:00:35;;;;;;;2.40;2.20;;;;;;;22.49;47.97;101238.16;215707;1257;74585;-77
2023/05/21 07:05:29;;;;;;;2.70;2.40;;;;;;;22.53;47.79;101235.95;215769;1254;61325;-78
2023/05/21 07:10:21;;;;;;;7.30;3.00;;;;;;;22.45;47.66;101227.11;215742;1254;61285;-78
2023/05/21 07:15:15;;;;;;;9.10;4.30;;;;;;;23.25;46.35;101224.02;215771;1253;61361;-78
2023/05/21 07:20:08;;;;;;;5.80;2.70;;;;;;;23.69;45.09;101222.25;215812;1254;75358;-77
2023/05/21 07:25:03;;;;;;;5.20;2.60;;;;;;;24.43;43.66;101218.70;215756;1254;71216;-77
2023/05/21 07:29:56;;;;;;;2.80;2.60;;;;;;;25.52;42.60;101222.89;215765;1254;61351;-77
2023/05/21 07:34:50;;;;;;;5.80;2.50;;;;;;;26.96;41.10;101215.63;215761;1254;66920;-78
2023/05/21 07:39:46;;;;;;;4.00;2.50;;;;;;;28.55;39.06;101213.26;215811;1257;61276;-78
2023/05/21 07:44:39;;;;;;;8.00;2.50;;;;;;;31.19;36.35;101211.38;215777;1255;73590;-77
2023/05/21 07:49:32;;;;;;;3.80;2.10;;;;;;;29.94;36.28;101219.19;215840;1254;72575;-77
2023/05/21 07:54:25;;;;;;;7.00;2.50;;;;;;;29.30;36.24;101218.03;215859;1254;61270;-78
2023/05/21 07:59:18;;;;;;;9.90;3.10;;;;;;;29.69;35.94;101214.00;215832;1254;65810;-78
2023/05/21 08:04:12;;;;;;;2.80;2.50;;;;;;;28.75;35.95;101212.71;215853;1254;61245;-78
2023/05/21 08:09:06;;;;;;;6.30;2.70;;;;;;;28.95;35.74;101215.27;215763;1254;75142;-78
2023/05/21 08:13:59;;;;;;;2.90;2.60;;;;;;;29.04;34.30;101211.59;215855;1254;71505;-77
2023/05/21 08:18:52;;;;;;;13.10;2.60;;;;;;;30.95;32.64;101207.71;215712;1254;61315;-78
2023/05/21 08:23:45;;;;;;;2.60;2.40;;;;;;;33.28;30.28;101203.70;215743;1254;67498;-78
2023/05/21 08:28:39;;;;;;;2.30;2.10;;;;;;;32.46;30.66;101200.42;215775;1254;61357;-78
2023/05/21 08:33:37;;;;;;;2.90;2.30;;;;;;;30.52;31.82;101193.75;215759;1257;74615;-78
2023/05/21 08:38:30;;;;;;;6.30;2.40;;;;;;;32.28;29.08;101191.34;215764;1254;72323;-78
2023/05/21 08:43:28;;;;;;;6.10;2.50;;;;;;;34.29;27.57;101185.23;215832;1254;61358;-78
2023/05/21 08:48:24;;;;;;;10.80;3.00;;;;;;;34.02;27.54;101191.36;215790;1254;65700;-78
2023/05/21 08:53:18;;;;;;;2.50;2.00;;;;;;;32.03;27.60;101188.45;215579;1254;61430;-78
2023/05/21 08:58:21;;;;;;;2.80;2.00;;;;;;;30.44;29.36;101191.90;215409;1257;75067;-78
2023/05/21 09:03:15;;;;;;;2.40;2.10;;;;;;;29.77;30.23;101191.24;215704;1254;72500;-78
2023/05/21 09:08:29;;;;;;;6.30;1.90;;;;;;;28.39;30.81;101194.73;215872;1254;61359;-78
2023/05/21 09:13:31;;;;;;;2.90;2.10;;;;;;;28.12;30.79;101195.34;215683;1254;67207;-78
2023/05/21 09:18:26;;;;;;;9.40;2.20;;;;;;;31.11;28.02;101186.85;215826;1254;61269;-78
2023/05/21 09:23:28;;;;;;;4.50;2.00;;;;;;;32.72;25.90;101181.97;215813;1257;75679;-78
2023/05/21 09:28:21;;;;;;;3.70;2.00;;;;;;;32.10;26.66;101181.61;215835;1254;71348;-78
2023/05/21 09:33:34;;;;;;;4.30;2.40;;;;;;;33.05;25.93;101180.27;215890;1257;61951;-78
2023/05/21 09:38:29;;;;;;;8.00;1.90;;;;;;;34.98;24.18;101176.31;215789;1257;67984;-78
2023/05/21 09:43:22;;;;;;;2.20;2.00;;;;;;;36.30;23.61;101173.89;215913;1254;61253;-78
2023/05/21 09:48:15;;;;;;;2.60;2.40;;;;;;;37.08;22.64;101176.64;215815;1254;75203;-78
2023/05/21 09:53:13;;;;;;;2.80;2.10;;;;;;;37.40;21.99;101174.33;215816;1254;62746;-78
2023/05/21 09:58:06;;;;;;;2.70;2.10;;;;;;;37.52;21.33;101168.91;215799;1254;61322;-78
2023/05/21 10:03:03;;;;;;;2.50;1.90;;;;;;;37.72;21.62;101165.66;215747;1254;61276;-78
2023/05/21 10:08:09;;;;;;;3.10;2.40;;;;;;;38.10;21.33;101161.55;215768;1254;61338;-78
2023/05/21 10:13:08;;;;;;;2.40;2.00;;;;;;;38.22;20.64;101155.70;215774;1254;65928;-78
2023/05/21 10:18:03;;;;;;;4.40;2.00;;;;;;;38.32;20.83;101153.08;215750;1254;64924;-77
2023/05/21 10:22:59;;;;;;;3.60;2.10;;;;;;;38.36;20.61;101154.44;215891;1255;61317;-79
2023/05/21 10:27:55;;;;;;;5.40;2.80;;;;;;;38.38;20.15;101149.84;215939;1254;61227;-79
2023/05/21 10:32:49;;;;;;;1.50;1.40;;;;;;;38.47;20.10;101152.49;215834;1254;61262;-80
2023/05/21 10:37:45;;;;;;;4.50;2.30;;;;;;;38.31;20.03;101148.91;215912;1257;64406;-79
2023/05/21 10:42:57;;;;;;;3.50;1.80;;;;;;;37.91;20.15;101148.76;215656;1256;62724;-79
2023/05/21 10:48:03;;;;;;;4.10;2.10;;;;;;;37.68;20.81;101149.46;215787;1253;61952;-78
2023/05/21 10:53:38;;;;;;;3.60;2.20;;;;;;;37.46;20.60;101145.96;215768;1254;61220;-79
2023/05/21 10:58:31;;;;;;;3.20;2.40;;;;;;;36.79;20.64;101144.30;214699;1261;61333;-78
2023/05/21 11:03:25;;;;;;;3.60;2.10;;;;;;;36.24;21.05;101141.26;214604;1260;61290;-78
2023/05/21 11:08:25;;;;;;;3.20;1.80;;;;;;;34.97;21.93;101138.58;214665;1260;72440;-79
2023/05/21 11:13:20;;;;;;;2.90;1.90;;;;;;;33.42;22.90;101136.28;214640;1260;61411;-79
2023/05/21 11:18:14;;;;;;;4.60;2.30;;;;;;;32.46;24.32;101131.48;214826;1260;65694;-79
2023/05/21 11:23:08;;;;;;;5.80;2.10;;;;;;;31.70;24.34;101122.01;214951;1261;61313;-79
2023/05/21 11:28:08;;;;;;;3.70;2.30;;;;;;;31.10;24.85;101119.40;214712;1264;74523;-78
2023/05/21 11:33:08;;;;;;;5.20;2.00;;;;;;;30.70;25.18;101116.10;214963;1255;73017;-79
2023/05/21 11:38:01;;;;;;;3.40;2.50;;;;;;;30.26;25.59;101111.23;215858;1254;61275;-78
2023/05/21 11:42:56;;;;;;;2.70;2.20;;;;;;;29.96;25.62;101102.81;215724;1254;66961;-78
2023/05/21 11:47:51;;;;;;;3.20;2.10;;;;;;;29.84;26.16;101109.05;215806;1254;61336;-78
2023/05/21 11:52:45;;;;;;;2.10;1.90;;;;;;;29.79;26.04;101102.17;216108;1254;74728;-79
2023/05/21 11:57:43;;;;;;;4.50;2.10;;;;;;;29.48;25.80;101101.78;215911;1254;73526;-79
2023/05/21 12:02:36;;;;;;;4.10;1.90;;;;;;;29.40;26.07;101104.71;215987;1254;61285;-79
2023/05/21 12:07:29;;;;;;;3.20;2.30;;;;;;;29.45;26.86;101104.83;215897;1256;67007;-78
2023/05/21 12:12:25;;;;;;;3.00;2.30;;;;;;;29.52;26.48;101096.56;215936;1254;61404;-79
2023/05/21 12:17:27;;;;;;;7.00;2.10;;;;;;;29.65;26.32;101089.90;215710;1254;75530;-79
2023/05/21 12:22:20;;;;;;;2.00;1.80;;;;;;;29.62;26.82;101097.75;215831;1254;71692;-79
2023/05/21 12:27:15;;;;;;;3.40;1.70;;;;;;;29.70;26.61;101088.54;215918;1257;61273;-78
2023/05/21 12:32:11;;;;;;;2.60;1.80;;;;;;;29.51;26.06;101094.46;215796;1254;66944;-78
2023/05/21 12:37:05;;;;;;;3.10;2.40;;;;;;;29.34;26.38;101092.77;215847;1254;61261;-78
2023/05/21 12:41:58;;;;;;;5.20;2.10;;;;;;;29.34;26.39;101086.87;215808;1254;73254;-78
2023/05/21 12:46:51;;;;;;;5.00;2.10;;;;;;;29.18;26.73;101089.14;215966;1254;61244;-78
2023/05/21 12:51:45;;;;;;;3.70;2.70;;;;;;;29.29;26.61;101091.61;215855;1254;61224;-78
2023/05/21 12:56:45;;;;;;;6.00;3.10;;;;;;;28.97;26.20;101086.33;215889;1254;68147;-78
2023/05/21 13:01:38;;;;;;;3.90;1.70;;;;;;;28.32;26.40;101090.30;215768;1254;61248;-78
2023/05/21 13:06:41;;;;;;;3.10;1.90;;;;;;;28.23;26.59;101085.95;215613;1257;71550;-79
2023/05/21 13:11:34;;;;;;;3.30;2.30;;;;;;;28.47;27.03;101079.88;215593;1254;73277;-78
2023/05/21 13:16:27;;;;;;;2.70;1.70;;;;;;;28.63;26.53;101075.89;216046;1254;61508;-79
2023/05/21 13:21:21;;;;;;;2.60;1.90;;;;;;;28.56;26.70;101078.54;215970;1254;67407;-78
2023/05/21 13:26:14;;;;;;;3.80;2.20;;;;;;;28.57;26.26;101069.78;216029;1254;61229;-79
2023/05/21 13:31:07;;;;;;;2.50;2.10;;;;;;;28.41;26.10;101071.23;215773;1254;75068;-79
2023/05/21 13:36:00;;;;;;;5.60;3.40;;;;;;;28.31;26.18;101068.92;215921;1254;72550;-78
2023/05/21 13:40:53;;;;;;;2.70;2.00;;;;;;;28.22;26.08;101068.90;215904;1254;62656;-79
2023/05/21 13:45:48;;;;;;;5.20;2.00;;;;;;;28.28;26.17;101063.56;215964;1254;61228;-78
2023/05/21 13:50:41;;;;;;;2.20;2.00;;;;;;;28.34;25.87;101062.73;215942;1255;61280;-78
2023/05/21 13:55:34;;;;;;;2.80;2.00;;;;;;;28.19;25.41;101057.11;215999;1254;61384;-79
2023/05/21 14:00:27;;;;;;;2.10;1.90;;;;;;;28.04;25.63;101057.83;216001;1257;61225;-79
2023/05/21 14:05:20;;;;;;;2.90;2.20;;;;;;;28.05;25.88;101054.77;216001;1254;61446;-78
2023/05/21 14:10:13;;;;;;;2.40;2.10;;;;;;;28.23;26.12;101046.03;216056;1254;61375;-78
2023/05/21 14:15:06;;;;;;;2.50;2.30;;;;;;;28.22;26.52;101050.13;215990;1254;61276;-78
2023/05/21 14:19:59;;;;;;;3.30;2.00;;;;;;;28.03;25.93;101050.58;216005;1257;74674;-78
2023/05/21 14:24:52;;;;;;;3.20;2.30;;;;;;;27.75;26.41;101048.95;216017;1254;61258;-79
2023/05/21 14:29:45;;;;;;;3.10;1.90;;;;;;;27.73;26.39;101046.38;215972;1257;61547;-79
2023/05/21 14:34:39;;;;;;;4.70;2.00;;;;;;;27.48;26.25;101048.33;216057;1254;61268;-78
2023/05/21 14:39:32;;;;;;;2.80;2.10;;;;;;;27.33;26.62;101045.81;216003;1254;61429;-79
2023/05/21 14:44:24;;;;;;;2.70;1.80;;;;;;;27.21;26.43;101043.33;216082;1257;61851;-79
2023/05/21 14:49:17;;;;;;;2.80;2.10;;;;;;;27.10;26.36;101040.30;215931;1253;153186;-79
2023/05/21 14:54:10;;;;;;;2.10;1.90;;;;;;;27.03;26.67;101034.93;216059;1255;61382;-79
2023/05/21 14:59:03;;;;;;;2.60;2.40;;;;;;;26.91;26.17;101031.94;216060;1256;61241;-79
2023/05/21 15:03:57;;;;;;;3.30;2.10;;;;;;;26.77;26.12;101029.91;216157;1255;61248;-79
2023/05/21 15:08:50;;;;;;;2.50;2.30;;;;;;;26.59;26.16;101031.95;216057;1256;75683;-79
2023/05/21 15:13:43;;;;;;;7.80;1.80;;;;;;;26.52;26.37;101029.04;216168;1255;72589;-79
2023/05/21 15:18:36;;;;;;;2.20;2.00;;;;;;;26.40;26.45;101031.71;216063;1254;61358;-79
2023/05/21 15:23:29;;;;;;;3.70;2.60;;;;;;;26.32;26.53;101025.85;216068;1256;61389;-79
2023/05/21 15:28:22;;;;;;;2.30;2.10;;;;;;;26.32;26.76;101023.39;216066;1256;61223;-79
2023/05/21 15:33:15;;;;;;;2.60;2.00;;;;;;;26.27;26.60;101023.03;216105;1257;74669;-79
2023/05/21 15:38:08;;;;;;;4.70;1.90;;;;;;;26.15;26.47;101022.14;216235;1254;61349;-79
2023/05/21 15:43:01;;;;;;;5.60;2.20;;;;;;;25.98;26.37;101022.51;216123;1256;61461;-80
2023/05/21 15:47:54;;;;;;;3.10;2.20;;;;;;;25.95;26.63;101018.38;216079;1255;66003;-79
2023/05/21 15:52:47;;;;;;;2.10;2.00;;;;;;;25.88;26.55;101024.69;216181;1256;61397;-79
2023/05/21 15:57:43;;;;;;;2.10;1.90;;;;;;;25.77;26.54;101021.41;216265;1255;75695;-79
2023/05/21 16:02:36;;;;;;;3.30;2.00;;;;;;;25.69;26.88;101017.45;216192;1257;61342;-79
2023/05/21 16:07:29;;;;;;;3.10;2.60;;;;;;;25.65;26.60;101013.01;216182;1256;61241;-80
2023/05/21 16:12:22;;;;;;;2.50;2.10;;;;;;;25.47;26.69;101015.71;216013;1255;63287;-79
2023/05/21 16:17:15;;;;;;;2.50;2.30;;;;;;;25.29;26.88;101014.83;216061;1257;61817;-79
2023/05/21 16:22:08;;;;;;;2.70;2.50;;;;;;;25.18;27.16;101017.38;216065;1256;61221;-79
2023/05/21 16:27:02;;;;;;;2.20;2.00;;;;;;;25.13;27.44;101013.65;216050;1256;72309;-79
2023/05/21 16:31:55;;;;;;;2.50;2.30;;;;;;;25.08;28.09;101015.09;216210;1256;61225;-77
2023/05/21 16:36:50;;;;;;;2.30;2.10;;;;;;;24.96;27.98;101013.61;216080;1254;61248;-78
2023/05/21 16:41:43;;;;;;;2.90;2.20;;;;;;;24.76;27.72;101012.92;216115;1256;61388;-79
2023/05/21 16:46:36;;;;;;;5.80;3.00;;;;;;;24.62;28.06;101017.01;216044;1256;73387;-79
2023/05/21 16:51:30;;;;;;;3.10;1.80;;;;;;;24.48;28.42;101023.00;216126;1256;72823;-79
2023/05/21 16:56:26;;;;;;;4.20;2.40;;;;;;;24.27;28.86;101025.14;216043;1254;61442;-79
2023/05/21 17:01:21;;;;;;;6.60;2.50;;;;;;;24.15;29.40;101024.65;216048;1255;68057;-79
2023/05/21 17:06:16;;;;;;;4.80;2.70;;;;;;;24.04;29.85;101026.09;216036;1256;61310;-79
2023/05/21 17:11:09;;;;;;;7.60;3.40;;;;;;;23.86;30.10;101024.92;216085;1256;61380;-79
2023/05/21 17:16:02;;;;;;;6.70;2.50;;;;;;;23.66;30.96;101024.16;215972;1254;73709;-79
2023/05/21 17:20:57;;;;;;;5.90;2.20;;;;;;;23.44;31.42;101021.67;216167;1254;61311;-79
2023/05/21 17:25:53;;;;;;;2.80;2.10;;;;;;;23.20;32.19;101018.89;216124;1254;65991;-79
2023/05/21 17:30:46;;;;;;;5.60;2.90;;;;;;;22.90;32.72;101013.39;216113;1257;61289;-79
2023/05/21 17:35:41;;;;;;;5.10;2.60;;;;;;;22.58;33.97;101011.66;216153;1254;75748;-79
2023/05/21 17:40:35;;;;;;;8.80;4.00;;;;;;;22.25;34.96;101015.39;216024;1253;72506;-78
2023/05/21 17:45:28;;;;;;;6.60;2.50;;;;;;;21.92;35.76;101017.27;216031;1256;64161;-79
2023/05/21 17:50:20;;;;;;;7.40;3.90;;;;;;;21.58;35.99;101014.05;215914;1254;61325;-78
2023/05/21 17:55:13;;;;;;;2.50;2.30;;;;;;;21.24;36.72;101011.81;216020;1256;61250;-79
2023/05/21 18:00:07;;;;;;;5.50;2.50;;;;;;;20.92;37.91;101011.45;215751;1257;61263;-78
2023/05/21 18:05:06;;;;;;;5.40;2.60;;;;;;;20.59;38.40;101014.56;217374;1255;71719;-79
2023/05/21 18:10:00;;;;;;;2.70;2.40;;;;;;;20.32;39.23;101017.71;215696;1256;61941;-78
2023/05/21 18:14:53;;;;;;;5.40;2.50;;;;;;;20.01;39.70;101019.85;215965;1255;65945;-79
2023/05/21 18:19:46;;;;;;;4.90;2.90;;;;;;;19.73;40.22;101023.46;215906;1256;61279;-78
2023/05/21 18:24:39;;;;;;;4.50;2.70;;;;;;;19.47;40.85;101019.29;215925;1255;74368;-78
2023/05/21 18:29:32;;;;;;;4.30;2.50;;;;;;;19.19;41.37;101016.34;216019;1257;61214;-79
2023/05/21 18:34:24;;;;;;;3.00;2.50;;;;;;;18.95;41.80;101019.13;216039;1258;61257;-78
2023/05/21 18:39:22;;;;;;;2.60;2.40;;;;;;;18.74;42.52;101022.00;215891;1255;61372;-79
2023/05/21 18:44:15;;;;;;;3.30;3.00;;;;;;;18.51;43.07;101023.11;215946;1256;61228;-80
2023/05/21 18:49:08;;;;;;;4.00;3.20;;;;;;;18.25;43.46;101026.37;215806;1256;61342;-80
2023/05/21 18:54:01;;;;;;;4.80;4.10;;;;;;;17.93;44.12;101026.83;215784;1255;61464;-80
2023/05/21 18:58:54;;;;;;;5.30;4.70;;;;;;;17.72;44.92;101029.45;216247;1254;68906;-78
2023/05/21 19:03:47;;;;;;;6.20;3.50;;;;;;;17.47;45.40;101032.23;215854;1258;65900;-77
2023/05/21 19:08:40;;;;;;;3.80;3.30;;;;;;;17.21;46.01;101035.54;215931;1258;61251;-77
2023/05/21 19:13:34;;;;;;;4.10;3.40;;;;;;;17.04;46.57;101044.21;215936;1257;61279;-76
2023/05/21 19:18:30;;;;;;;7.80;3.10;;;;;;;16.91;47.42;101041.12;215847;1256;71384;-76
2023/05/21 19:23:24;;;;;;;6.80;3.60;;;;;;;16.74;48.07;101042.72;215846;1256;63987;-76
2023/05/21 19:28:17;;;;;;;9.10;3.20;;;;;;;16.57;48.75;101044.86;215965;1258;65145;-76
2023/05/21 19:33:10;;;;;;;5.00;3.50;;;;;;;16.47;49.28;101045.23;215587;1256;61325;-76
2023/05/21 19:38:05;;;;;;;4.70;3.00;;;;;;;16.37;49.65;101042.63;215773;1254;74296;-76
2023/05/21 19:42:58;;;;;;;10.10;3.40;;;;;;;16.25;50.21;101041.95;215499;1256;73183;-76
2023/05/21 19:47:51;;;;;;;5.70;3.30;;;;;;;16.15;50.66;101041.96;215782;1258;61263;-76
2023/05/21 19:52:44;;;;;;;10.50;3.30;;;;;;;16.04;50.80;101043.89;215910;1256;61369;-77
2023/05/21 19:57:38;;;;;;;6.90;3.80;;;;;;;15.93;51.13;101045.28;215852;1256;61245;-77
2023/05/21 20:02:33;;;;;;;10.80;3.90;;;;;;;15.78;51.51;101038.11;215895;1257;74877;-76
2023/05/21 20:07:26;;;;;;;4.60;3.70;;;;;;;15.58;51.83;101035.79;215656;1254;71975;-77
2023/05/21 20:12:19;;;;;;;12.40;4.20;;;;;;;15.40;52.42;101034.00;215793;1257;61351;-77
2023/05/21 20:17:14;;;;;;;14.10;4.00;;;;;;;15.25;52.84;101029.09;215861;1254;66483;-76
2023/05/21 20:22:07;;;;;;;10.00;5.60;;;;;;;15.12;53.37;101032.18;215780;1258;61429;-77
2023/05/21 20:27:01;;;;;;;5.00;4.00;;;;;;;15.04;53.89;101033.39;215619;1254;74701;-77
2023/05/21 20:31:54;;;;;;;6.60;3.60;;;;;;;14.95;54.16;101036.13;215915;1255;73558;-77
2023/05/21 20:36:47;;;;;;;7.60;4.50;;;;;;;14.86;54.30;101042.58;215838;1254;61285;-77
2023/05/21 20:41:43;;;;;;;6.10;3.90;;;;;;;14.76;54.57;101044.96;215825;1257;65378;-77
2023/05/21 20:46:39;;;;;;;8.70;4.30;;;;;;;14.67;55.02;101048.23;215713;1254;61258;-76
2023/05/21 20:51:33;;;;;;;6.40;4.00;;;;;;;14.54;55.29;101057.71;215732;1254;74334;-77
2023/05/21 20:56:27;;;;;;;8.90;4.70;;;;;;;14.38;55.70;101054.13;215871;1258;74381;-77
2023/05/21 21:01:36;;;;;;;5.30;4.40;;;;;;;14.28;56.08;101050.23;215732;1254;61333;-77
2023/05/21 21:06:30;;;;;;;4.90;4.40;;;;;;;14.17;56.43;101050.30;215746;1257;67889;-77
2023/05/21 21:11:23;;;;;;;4.60;4.10;;;;;;;14.06;56.75;101044.66;215559;1258;61327;-77
2023/05/21 21:16:16;;;;;;;4.70;4.10;;;;;;;14.04;57.14;101045.84;215622;1254;75413;-76
2023/05/21 21:21:10;;;;;;;6.90;4.20;;;;;;;13.95;57.11;101043.69;215542;1257;70812;-77
2023/05/21 21:26:03;;;;;;;6.30;4.90;;;;;;;13.83;57.53;101043.08;215488;1258;61712;-77
2023/05/21 21:30:56;;;;;;;10.10;4.70;;;;;;;13.80;57.73;101036.42;215450;1254;67045;-77
2023/05/21 21:35:50;;;;;;;5.10;4.40;;;;;;;13.79;57.81;101034.15;215319;1255;61260;-77
2023/05/21 21:40:43;;;;;;;8.30;4.70;;;;;;;13.69;57.70;101032.85;215353;1254;74580;-77
2023/05/21 21:45:36;;;;;;;7.60;5.00;;;;;;;13.51;57.85;101030.23;215243;1254;61381;-77
2023/05/21 21:50:29;;;;;;;5.20;4.70;;;;;;;13.36;58.12;101034.42;215351;1257;61301;-77
2023/05/21 21:55:23;;;;;;;7.80;5.30;;;;;;;13.22;58.27;101039.13;215331;1254;61378;-76
2023/05/21 22:00:17;;;;;;;5.90;4.90;;;;;;;13.09;58.50;101040.19;215469;1254;61281;-77
2023/05/21 22:05:13;;;;;;;5.90;4.70;;;;;;;12.97;58.66;101039.35;215585;1254;75147;-77
2023/05/21 22:10:07;;;;;;;6.60;5.00;;;;;;;12.87;58.92;101037.65;215589;1257;72064;-77
2023/05/21 22:15:03;;;;;;;7.50;5.60;;;;;;;12.82;59.20;101036.55;215454;1254;61341;-77
2023/05/21 22:19:57;;;;;;;7.70;6.30;;;;;;;12.72;59.18;101040.60;215439;1257;65718;-77
2023/05/21 22:24:50;;;;;;;6.40;5.40;;;;;;;12.56;59.53;101037.25;215473;1254;61281;-77
2023/05/21 22:29:43;;;;;;;8.60;6.60;;;;;;;12.50;59.89;101038.20;215495;1254;75595;-77
2023/05/21 22:34:36;;;;;;;11.80;7.10;;;;;;;12.45;59.99;101037.95;215601;1254;61322;-77